createdAt,value
2022-12-03T00:00:33.585Z,4.60
2022-12-03T00:03:00.271Z,5.00
2022-12-03T00:05:26.878Z,4.95
2022-12-03T00:07:53.567Z,5.28
2022-12-03T00:10:20.226Z,4.60
2022-12-03T00:12:46.828Z,4.32
2022-12-03T00:15:13.409Z,4.70
2022-12-03T00:17:39.979Z,4.85
2022-12-03T00:20:08.181Z,4.47
2022-12-03T00:22:34.859Z,5.15
2022-12-03T00:25:01.392Z,4.88
2022-12-03T00:27:28.165Z,4.90
2022-12-03T00:29:54.736Z,4.85
2022-12-03T00:32:21.258Z,4.82
2022-12-03T00:34:47.779Z,4.85
2022-12-03T00:37:14.300Z,4.28
2022-12-03T00:39:40.815Z,3.97
2022-12-03T00:42:07.396Z,4.50
2022-12-03T00:44:33.958Z,4.35
2022-12-03T00:47:00.576Z,4.60
2022-12-03T00:49:27.181Z,4.32
2022-12-03T00:51:53.695Z,4.20
2022-12-03T00:54:20.272Z,4.63
2022-12-03T00:56:46.785Z,4.30
2022-12-03T00:59:13.359Z,4.28
2022-12-03T01:01:39.934Z,3.92
2022-12-03T01:04:06.528Z,4.05
2022-12-03T01:06:33.076Z,4.10
2022-12-03T01:08:59.587Z,4.30
2022-12-03T01:11:37.823Z,4.25
2022-12-03T01:14:09.847Z,4.50
2022-12-03T01:16:36.676Z,4.47
2022-12-03T01:19:04.398Z,3.88
2022-12-03T01:21:31.056Z,4.25
2022-12-03T01:23:57.588Z,3.97
2022-12-03T01:26:25.382Z,4.10
2022-12-03T01:28:52.768Z,4.38
2022-12-03T01:31:38.127Z,4.50
2022-12-03T01:34:05.015Z,4.03
2022-12-03T01:36:31.646Z,4.70
2022-12-03T01:38:58.171Z,3.92
2022-12-03T01:41:24.982Z,3.88
2022-12-03T01:43:52.063Z,3.63
2022-12-03T01:46:24.444Z,3.88
2022-12-03T01:48:52.767Z,4.18
2022-12-03T01:51:19.368Z,3.80
2022-12-03T01:53:46.145Z,4.20
2022-12-03T01:56:14.207Z,4.07
2022-12-03T01:58:41.010Z,3.45
2022-12-03T02:01:12.150Z,3.65
2022-12-03T02:03:38.775Z,4.28
2022-12-03T02:06:09.179Z,4.28
2022-12-03T02:08:37.464Z,4.13
2022-12-03T02:11:20.757Z,3.92
2022-12-03T02:13:48.851Z,3.63
2022-12-03T02:16:15.414Z,3.80
2022-12-03T02:18:42.770Z,3.97
2022-12-03T02:21:32.128Z,3.63
2022-12-03T02:24:22.239Z,3.80
2022-12-03T02:26:48.800Z,4.10
2022-12-03T02:29:15.351Z,4.00
2022-12-03T02:31:42.831Z,3.47
2022-12-03T02:34:11.155Z,3.45
2022-12-03T02:36:38.582Z,3.55
2022-12-03T02:39:05.487Z,3.60
2022-12-03T02:41:50.606Z,3.85
2022-12-03T02:44:17.153Z,3.25
2022-12-03T02:46:43.763Z,3.60
2022-12-03T02:49:10.390Z,3.58
2022-12-03T02:51:36.955Z,3.53
2022-12-03T02:54:03.809Z,3.38
2022-12-03T02:56:31.397Z,3.65
2022-12-03T02:59:00.667Z,3.53
2022-12-03T03:01:27.220Z,3.40
2022-12-03T03:03:54.158Z,3.55
2022-12-03T03:06:21.251Z,3.47
2022-12-03T03:08:48.219Z,2.92
2022-12-03T03:11:14.794Z,3.50
2022-12-03T03:13:41.345Z,3.25
2022-12-03T03:16:08.316Z,3.17
2022-12-03T03:18:35.386Z,3.35
2022-12-03T03:21:02.913Z,3.05
2022-12-03T03:23:29.428Z,3.20
2022-12-03T03:26:02.151Z,2.80
2022-12-03T03:28:29.749Z,3.33
2022-12-03T03:30:57.654Z,3.00
2022-12-03T03:33:24.347Z,3.10
2022-12-03T03:35:51.005Z,3.30
2022-12-03T03:38:19.367Z,3.53
2022-12-03T03:40:47.021Z,3.05
2022-12-03T03:43:13.912Z,3.00
2022-12-03T03:45:40.510Z,3.08
2022-12-03T03:48:07.136Z,3.00
2022-12-03T03:50:33.938Z,3.55
2022-12-03T03:53:01.548Z,3.15
2022-12-03T03:55:28.458Z,3.03
2022-12-03T03:57:55.003Z,2.80
2022-12-03T04:00:21.512Z,2.65
2022-12-03T04:02:48.075Z,3.17
2022-12-03T04:05:17.260Z,2.95
2022-12-03T04:07:43.844Z,2.90
2022-12-03T04:10:30.111Z,3.10
2022-12-03T04:12:56.760Z,3.00
2022-12-03T04:15:24.216Z,2.97
2022-12-03T04:18:10.723Z,3.47
2022-12-03T04:20:38.169Z,2.72
2022-12-03T04:23:05.191Z,3.40
2022-12-03T04:25:50.604Z,3.15
2022-12-03T04:28:35.656Z,2.80
2022-12-03T04:31:22.271Z,3.10
2022-12-03T04:34:07.347Z,3.22
2022-12-03T04:36:33.880Z,3.00
2022-12-03T04:39:00.395Z,2.90
2022-12-03T04:41:26.991Z,3.38
2022-12-03T04:44:12.126Z,3.28
2022-12-03T04:46:38.653Z,3.03
2022-12-03T04:49:05.180Z,2.97
2022-12-03T04:51:31.704Z,2.90
2022-12-03T04:53:58.231Z,3.47
2022-12-03T04:56:24.734Z,2.95
2022-12-03T04:58:51.332Z,3.00
2022-12-03T05:01:17.935Z,2.70
2022-12-03T05:03:44.560Z,3.00
2022-12-03T05:06:11.082Z,2.90
2022-12-03T05:08:37.588Z,3.08
2022-12-03T05:11:04.121Z,3.10
2022-12-03T05:13:30.652Z,3.00
2022-12-03T05:15:57.175Z,2.80
2022-12-03T05:18:23.688Z,2.47
2022-12-03T05:20:53.437Z,3.00
2022-12-03T05:23:20.504Z,2.90
2022-12-03T05:25:47.037Z,2.80
2022-12-03T05:28:13.575Z,2.65
2022-12-03T05:30:40.248Z,2.72
2022-12-03T05:33:06.830Z,3.00
2022-12-03T05:35:33.356Z,3.50
2022-12-03T05:37:59.925Z,2.90
2022-12-03T05:40:26.454Z,2.70
2022-12-03T05:43:01.112Z,2.83
2022-12-03T05:45:30.012Z,2.95
2022-12-03T05:47:57.843Z,3.03
2022-12-03T05:50:26.752Z,3.00
2022-12-03T05:52:53.280Z,2.97
2022-12-03T05:55:20.131Z,2.90
2022-12-03T05:57:47.248Z,3.13
2022-12-03T06:00:17.575Z,3.05
2022-12-03T06:02:44.316Z,2.80
2022-12-03T06:05:12.365Z,3.40
2022-12-03T06:07:38.966Z,2.67
2022-12-03T06:10:07.713Z,2.90
2022-12-03T06:12:34.234Z,2.95
2022-12-03T06:15:01.009Z,3.00
2022-12-03T06:17:27.600Z,2.85
2022-12-03T06:19:54.107Z,2.80
2022-12-03T06:22:20.610Z,3.13
2022-12-03T06:24:47.310Z,3.17
2022-12-03T06:27:13.815Z,2.92
2022-12-03T06:29:40.367Z,2.90
2022-12-03T06:32:07.187Z,2.75
2022-12-03T06:34:33.831Z,3.05
2022-12-03T06:37:00.353Z,2.97
2022-12-03T06:39:26.998Z,2.88
2022-12-03T06:41:53.558Z,2.95
2022-12-03T06:44:20.071Z,3.00
2022-12-03T06:46:47.922Z,2.60
2022-12-03T06:49:14.515Z,3.03
2022-12-03T06:51:41.079Z,3.13
2022-12-03T06:54:07.593Z,3.20
2022-12-03T06:56:37.895Z,2.97
2022-12-03T06:59:08.304Z,2.72
2022-12-03T07:01:34.912Z,2.70
2022-12-03T07:04:01.470Z,2.70
2022-12-03T07:06:27.983Z,3.00
2022-12-03T07:08:54.548Z,2.90
2022-12-03T07:11:33.190Z,2.53
2022-12-03T07:14:05.491Z,2.60
2022-12-03T07:16:32.828Z,2.57
2022-12-03T07:18:59.507Z,2.97
2022-12-03T07:21:26.042Z,2.60
2022-12-03T07:23:52.596Z,2.38
2022-12-03T07:26:19.305Z,2.38
2022-12-03T07:28:48.147Z,2.42
2022-12-03T07:31:15.096Z,2.40
2022-12-03T07:33:41.699Z,2.40
2022-12-03T07:36:08.871Z,2.50
2022-12-03T07:38:35.453Z,2.30
2022-12-03T07:41:01.964Z,2.00
2022-12-03T07:43:28.501Z,2.78
2022-12-03T07:45:55.078Z,2.70
2022-12-03T07:48:21.599Z,2.30
2022-12-03T07:50:48.179Z,2.25
2022-12-03T07:53:14.744Z,2.30
2022-12-03T07:55:41.279Z,2.28
2022-12-03T07:58:09.014Z,2.80
2022-12-03T08:00:35.614Z,2.85
2022-12-03T08:03:02.163Z,2.78
2022-12-03T08:05:29.863Z,3.20
2022-12-03T08:07:56.748Z,3.08
2022-12-03T08:10:24.872Z,3.13
2022-12-03T08:12:51.438Z,3.53
2022-12-03T08:15:19.254Z,3.60
2022-12-03T08:17:48.187Z,3.42
2022-12-03T08:20:17.002Z,3.22
2022-12-03T08:22:46.133Z,3.30
2022-12-03T08:25:21.808Z,4.03
2022-12-03T08:27:48.651Z,3.63
2022-12-03T08:30:16.220Z,4.40
2022-12-03T08:32:43.038Z,5.45
2022-12-03T08:35:14.430Z,4.80
2022-12-03T08:37:41.269Z,4.30
2022-12-03T08:40:23.352Z,4.50
2022-12-03T08:42:50.267Z,4.18
2022-12-03T08:45:39.926Z,4.57
2022-12-03T08:48:18.460Z,4.38
2022-12-03T08:50:45.431Z,4.32
2022-12-03T08:53:30.190Z,4.57
2022-12-03T08:56:02.065Z,4.43
2022-12-03T08:58:34.648Z,4.20
2022-12-03T09:01:15.725Z,3.97
2022-12-03T09:03:52.810Z,4.35
2022-12-03T09:06:19.435Z,4.32
2022-12-03T09:08:46.045Z,4.47
2022-12-03T09:11:13.333Z,4.00
2022-12-03T09:13:40.041Z,4.10
2022-12-03T09:16:07.164Z,4.20
2022-12-03T09:18:33.807Z,4.20
2022-12-03T09:21:00.336Z,3.85
2022-12-03T09:23:27.214Z,3.63
2022-12-03T09:25:53.743Z,4.47
2022-12-03T09:28:20.275Z,4.00
2022-12-03T09:30:46.801Z,4.63
2022-12-03T09:33:14.055Z,4.07
2022-12-03T09:35:40.582Z,4.10
2022-12-03T09:38:07.095Z,4.03
2022-12-03T09:40:34.179Z,3.92
2022-12-03T09:43:00.949Z,3.80
2022-12-03T09:45:27.470Z,3.97
2022-12-03T09:47:54.916Z,3.78
2022-12-03T09:50:26.350Z,4.15
2022-12-03T09:52:57.406Z,3.90
2022-12-03T09:55:26.430Z,4.65
2022-12-03T09:57:53.610Z,4.18
2022-12-03T10:00:23.892Z,4.07
2022-12-03T10:02:52.176Z,4.10
2022-12-03T10:05:22.413Z,4.20
2022-12-03T10:07:50.239Z,4.05
2022-12-03T10:10:18.911Z,3.92
2022-12-03T10:12:45.680Z,3.70
2022-12-03T10:15:14.635Z,3.75
2022-12-03T10:17:41.219Z,4.28
2022-12-03T10:20:11.615Z,4.03
2022-12-03T10:22:38.172Z,3.78
2022-12-03T10:25:12.393Z,3.53
2022-12-03T10:27:39.683Z,3.55
2022-12-03T10:30:19.785Z,3.85
2022-12-03T10:32:51.100Z,4.20
2022-12-03T10:35:20.685Z,4.05
2022-12-03T10:38:05.283Z,4.03
2022-12-03T10:40:32.635Z,4.53
2022-12-03T10:43:20.614Z,4.55
2022-12-03T10:45:50.668Z,4.65
2022-12-03T10:48:17.278Z,4.53
2022-12-03T10:50:51.109Z,4.05
2022-12-03T10:53:19.999Z,4.13
2022-12-03T10:55:47.733Z,4.35
2022-12-03T10:58:23.337Z,4.40
2022-12-03T11:00:53.277Z,4.60
2022-12-03T11:03:22.666Z,5.00
2022-12-03T11:05:49.975Z,4.20
2022-12-03T11:08:21.947Z,4.25
2022-12-03T11:11:03.379Z,4.28
2022-12-03T11:13:32.554Z,4.18
2022-12-03T11:16:00.249Z,4.30
2022-12-03T11:18:49.892Z,3.85
2022-12-03T11:21:16.427Z,4.20
2022-12-03T11:23:48.808Z,3.83
2022-12-03T11:26:19.315Z,4.00
2022-12-03T11:28:46.339Z,4.03
2022-12-03T11:31:38.991Z,4.28
2022-12-03T11:34:20.690Z,4.40
2022-12-03T11:37:26.022Z,4.35
2022-12-03T11:39:53.282Z,3.95
2022-12-03T11:42:25.407Z,3.95
2022-12-03T11:45:03.930Z,4.07
2022-12-03T11:47:40.751Z,4.05
2022-12-03T11:50:36.123Z,4.25
2022-12-03T11:53:21.324Z,4.22
2022-12-03T11:56:04.031Z,4.15
2022-12-03T11:58:31.011Z,4.97
2022-12-03T12:01:02.438Z,4.85
2022-12-03T12:03:37.292Z,4.60
2022-12-03T12:06:10.653Z,6.38
2022-12-03T12:08:55.021Z,6.68
2022-12-03T12:11:35.331Z,7.22
2022-12-03T12:14:05.921Z,6.80
2022-12-03T12:16:41.313Z,6.22
2022-12-03T12:19:31.112Z,6.57
2022-12-03T12:22:12.907Z,7.22
2022-12-03T12:24:48.267Z,6.57
2022-12-03T12:27:23.458Z,6.63
2022-12-03T12:30:00.969Z,7.07
2022-12-03T12:32:33.021Z,6.90
2022-12-03T12:35:16.116Z,6.72
2022-12-03T12:37:58.917Z,7.10
2022-12-03T12:42:57.946Z,6.57
2022-12-03T12:45:26.912Z,8.38
2022-12-03T12:48:07.574Z,10.48
2022-12-03T12:50:34.101Z,8.13
2022-12-03T12:53:26.775Z,7.60
2022-12-03T12:56:11.541Z,7.38
2022-12-03T12:58:38.129Z,7.70
2022-12-03T13:01:07.821Z,7.72
2022-12-03T13:03:37.826Z,6.65
2022-12-03T13:06:04.499Z,6.35
2022-12-03T13:08:33.915Z,6.57
2022-12-03T13:11:01.668Z,6.80
2022-12-03T13:13:44.046Z,6.40
2022-12-03T13:16:18.660Z,6.80
2022-12-03T13:18:47.466Z,6.97
2022-12-03T13:21:27.254Z,6.20
2022-12-03T13:23:56.583Z,6.60
2022-12-03T13:26:38.323Z,6.60
2022-12-03T13:29:15.142Z,6.32
2022-12-03T13:31:44.368Z,6.35
2022-12-03T13:34:16.985Z,6.18
2022-12-03T13:36:44.796Z,6.05
2022-12-03T13:39:32.431Z,6.03
2022-12-03T13:42:28.204Z,5.80
2022-12-03T13:44:54.743Z,5.95
2022-12-03T13:47:22.636Z,6.28
2022-12-03T13:50:03.663Z,6.18
2022-12-03T13:52:31.815Z,5.60
2022-12-03T13:54:58.513Z,5.85
2022-12-03T13:57:25.119Z,5.97
2022-12-03T13:59:52.096Z,5.68
2022-12-03T14:02:19.065Z,5.93
2022-12-03T14:04:45.656Z,5.97
2022-12-03T14:07:12.196Z,6.07
2022-12-03T14:09:38.755Z,6.05
2022-12-03T14:12:24.411Z,5.93
2022-12-03T14:14:50.931Z,5.78
2022-12-03T14:17:17.804Z,5.88
2022-12-03T14:19:44.845Z,5.85
2022-12-03T14:22:11.582Z,5.82
2022-12-03T14:24:39.903Z,5.47
2022-12-03T14:27:06.451Z,5.40
2022-12-03T14:29:33.059Z,5.80
2022-12-03T14:31:59.821Z,5.38
2022-12-03T14:34:26.462Z,5.63
2022-12-03T14:36:53.016Z,5.13
2022-12-03T14:39:19.675Z,5.60
2022-12-03T14:42:04.739Z,5.60
2022-12-03T14:44:31.375Z,5.78
2022-12-03T14:46:57.938Z,5.50
2022-12-03T14:49:24.586Z,5.22
2022-12-03T14:51:51.196Z,5.30
2022-12-03T14:54:17.719Z,5.20
2022-12-03T14:56:44.230Z,5.15
2022-12-03T14:59:10.782Z,5.40
2022-12-03T15:01:37.343Z,5.25
2022-12-03T15:04:03.927Z,5.22
2022-12-03T15:06:30.462Z,5.10
2022-12-03T15:08:56.974Z,5.40
2022-12-03T15:11:23.507Z,5.68
2022-12-03T15:13:50.042Z,5.50
2022-12-03T15:16:16.656Z,5.25
2022-12-03T15:18:43.280Z,5.18
2022-12-03T15:21:09.856Z,5.15
2022-12-03T15:23:36.373Z,5.40
2022-12-03T15:26:03.316Z,5.60
2022-12-03T15:28:30.031Z,5.35
2022-12-03T15:30:56.599Z,5.55
2022-12-03T15:33:23.234Z,5.55
2022-12-03T15:35:49.804Z,5.10
2022-12-03T15:38:16.322Z,5.97
2022-12-03T15:40:42.913Z,5.32
2022-12-03T15:43:09.944Z,5.25
2022-12-03T15:45:36.856Z,5.32
2022-12-03T15:48:04.038Z,5.57
2022-12-03T15:50:32.672Z,5.72
2022-12-03T15:53:02.284Z,5.40
2022-12-03T15:55:28.848Z,5.03
2022-12-03T15:57:55.451Z,5.18
2022-12-03T16:00:22.339Z,4.90
2022-12-03T16:02:52.612Z,5.38
2022-12-03T16:05:19.623Z,5.22
2022-12-03T16:07:46.191Z,5.35
2022-12-03T16:10:13.161Z,5.05
2022-12-03T16:12:39.755Z,5.20
2022-12-03T16:15:06.591Z,5.10
2022-12-03T16:17:33.260Z,4.68
2022-12-03T16:19:59.803Z,5.05
2022-12-03T16:22:26.344Z,4.78
2022-12-03T16:24:52.868Z,5.18
2022-12-03T16:27:24.040Z,5.68
2022-12-03T16:29:52.380Z,5.43
2022-12-03T16:32:19.274Z,5.80
2022-12-03T16:34:45.783Z,5.47
2022-12-03T16:37:12.315Z,5.30
2022-12-03T16:39:39.168Z,5.03
2022-12-03T16:42:08.965Z,5.15
2022-12-03T16:45:14.130Z,5.68
2022-12-03T16:47:40.640Z,5.82
2022-12-03T16:50:09.850Z,4.82
2022-12-03T16:52:38.178Z,5.45
2022-12-03T16:55:05.151Z,5.10
2022-12-03T16:57:33.888Z,5.05
2022-12-03T17:00:00.981Z,5.32
2022-12-03T17:02:27.784Z,5.20
2022-12-03T17:04:54.490Z,5.15
2022-12-03T17:07:21.060Z,5.05
2022-12-03T17:09:47.654Z,4.72
2022-12-03T17:12:14.166Z,5.25
2022-12-03T17:14:40.675Z,4.55
2022-12-03T17:17:07.217Z,4.78
2022-12-03T17:19:33.739Z,5.38
2022-12-03T17:22:00.271Z,5.05
2022-12-03T17:24:26.785Z,4.80
2022-12-03T17:26:53.356Z,4.68
2022-12-03T17:29:19.924Z,4.68
2022-12-03T17:31:46.527Z,4.68
2022-12-03T17:34:13.080Z,4.60
2022-12-03T17:36:39.630Z,4.60
2022-12-03T17:39:06.168Z,4.38
2022-12-03T17:41:32.684Z,4.40
2022-12-03T17:43:59.220Z,4.97
2022-12-03T17:46:25.756Z,5.05
2022-12-03T17:48:52.371Z,5.00
2022-12-03T17:51:20.817Z,4.70
2022-12-03T17:53:47.406Z,4.43
2022-12-03T17:56:13.927Z,4.50
2022-12-03T17:58:40.478Z,4.53
2022-12-03T18:01:09.375Z,4.50
2022-12-03T18:03:36.470Z,4.65
2022-12-03T18:06:03.963Z,4.80
2022-12-03T18:08:30.595Z,4.20
2022-12-03T18:10:57.109Z,4.30
2022-12-03T18:13:23.648Z,4.60
2022-12-03T18:15:50.249Z,4.35
2022-12-03T18:18:16.862Z,4.18
2022-12-03T18:20:43.410Z,4.30
2022-12-03T18:23:09.920Z,4.30
2022-12-03T18:25:36.448Z,4.13
2022-12-03T18:28:03.062Z,4.35
2022-12-03T18:30:29.639Z,4.32
2022-12-03T18:32:56.235Z,4.18
2022-12-03T18:35:22.807Z,3.72
2022-12-03T18:37:50.589Z,4.20
2022-12-03T18:40:20.091Z,4.10
2022-12-03T18:42:47.966Z,4.47
2022-12-03T18:45:15.773Z,3.63
2022-12-03T18:47:42.558Z,4.22
2022-12-03T18:50:09.939Z,4.47
2022-12-03T18:52:36.515Z,4.07
2022-12-03T18:55:04.475Z,3.70
2022-12-03T18:57:31.011Z,4.25
2022-12-03T18:59:58.266Z,3.92
2022-12-03T19:02:54.154Z,3.90
2022-12-03T19:05:11.686Z,3.90
2022-12-03T19:07:38.365Z,3.47
2022-12-03T19:10:05.298Z,4.25
2022-12-03T19:12:32.795Z,4.57
2022-12-03T19:14:59.327Z,3.97
2022-12-03T19:17:27.195Z,3.35
2022-12-03T19:19:54.352Z,3.63
2022-12-03T19:22:21.291Z,3.72
2022-12-03T19:24:47.810Z,4.10
2022-12-03T19:27:14.455Z,3.55
2022-12-03T19:29:40.977Z,3.65
2022-12-03T19:32:07.584Z,4.07
2022-12-03T19:34:34.246Z,3.67
2022-12-03T19:37:00.920Z,3.67
2022-12-03T19:39:27.488Z,3.70
2022-12-03T19:41:54.013Z,3.55
2022-12-03T19:44:20.550Z,3.85
2022-12-03T19:46:49.169Z,4.00
2022-12-03T19:49:18.432Z,4.20
2022-12-03T19:51:45.004Z,4.30
2022-12-03T19:54:12.245Z,3.78
2022-12-03T19:56:38.838Z,3.90
2022-12-03T19:59:05.775Z,4.03
2022-12-03T20:01:34.199Z,4.20
2022-12-03T20:04:02.172Z,4.00
2022-12-03T20:06:31.578Z,3.67
2022-12-03T20:09:03.756Z,4.13
2022-12-03T20:11:32.634Z,4.45
2022-12-03T20:14:05.173Z,4.00
2022-12-03T20:16:31.830Z,3.85
2022-12-03T20:19:00.206Z,4.20
2022-12-03T20:21:28.798Z,4.22
2022-12-03T20:23:55.346Z,3.85
2022-12-03T20:26:22.595Z,3.63
2022-12-03T20:28:49.627Z,3.70
2022-12-03T20:31:18.649Z,3.53
2022-12-03T20:33:48.129Z,4.00
2022-12-03T20:36:16.280Z,3.22
2022-12-03T20:38:43.334Z,3.55
2022-12-03T20:41:15.364Z,3.55
2022-12-03T20:43:42.004Z,3.97
2022-12-03T20:46:13.712Z,3.88
2022-12-03T20:48:40.988Z,4.07
2022-12-03T20:51:10.246Z,3.60
2022-12-03T20:53:37.497Z,4.10
2022-12-03T20:56:04.547Z,4.00
2022-12-03T20:58:32.193Z,3.67
2022-12-03T21:01:16.810Z,3.67
2022-12-03T21:03:44.308Z,3.35
2022-12-03T21:06:11.717Z,3.50
2022-12-03T21:08:42.578Z,3.72
2022-12-03T21:11:10.835Z,3.53
2022-12-03T21:13:41.057Z,3.67
2022-12-03T21:16:10.029Z,3.38
2022-12-03T21:18:37.011Z,4.28
2022-12-03T21:21:04.873Z,3.60
2022-12-03T21:23:32.919Z,3.55
2022-12-03T21:26:09.725Z,3.55
2022-12-03T21:28:38.222Z,3.53
2022-12-03T21:31:07.268Z,3.90
2022-12-03T21:33:34.140Z,3.60
2022-12-03T21:36:01.003Z,3.90
2022-12-03T21:38:28.395Z,4.20
2022-12-03T21:40:55.527Z,3.75
2022-12-03T21:43:22.400Z,4.13
2022-12-03T21:45:49.574Z,3.58
2022-12-03T21:48:16.790Z,3.88
2022-12-03T21:50:43.563Z,3.95
2022-12-03T21:53:10.173Z,3.97
2022-12-03T21:55:40.740Z,3.92
2022-12-03T21:58:08.129Z,3.40
2022-12-03T22:00:35.167Z,3.83
2022-12-03T22:03:01.759Z,4.05
2022-12-03T22:05:28.368Z,3.80
2022-12-03T22:07:54.921Z,3.70
2022-12-03T22:10:21.486Z,3.60
2022-12-03T22:12:48.038Z,3.90
2022-12-03T22:15:18.752Z,3.60
2022-12-03T22:17:45.806Z,3.80
2022-12-03T22:20:12.674Z,3.33
2022-12-03T22:22:39.214Z,3.50
2022-12-03T22:25:05.835Z,3.92
2022-12-03T22:27:32.443Z,3.72
2022-12-03T22:29:59.018Z,3.80
2022-12-03T22:32:25.763Z,4.03
2022-12-03T22:34:52.311Z,3.50
2022-12-03T22:37:18.847Z,4.00
2022-12-03T22:39:45.415Z,3.95
2022-12-03T22:42:11.943Z,3.60
2022-12-03T22:44:38.451Z,3.80
2022-12-03T22:47:05.485Z,3.60
2022-12-03T22:49:32.000Z,3.72
2022-12-03T22:51:58.542Z,3.70
2022-12-03T22:54:25.054Z,3.53
2022-12-03T22:56:51.570Z,3.47
2022-12-03T22:59:18.136Z,3.35
2022-12-03T23:01:44.654Z,3.90
2022-12-03T23:04:11.732Z,3.80
2022-12-03T23:06:39.110Z,4.20
2022-12-03T23:09:07.257Z,3.70
2022-12-03T23:11:34.221Z,3.20
2022-12-03T23:14:00.760Z,3.50
2022-12-03T23:16:30.050Z,3.75
2022-12-03T23:19:00.443Z,3.70
2022-12-03T23:21:30.731Z,3.58
2022-12-03T23:24:01.523Z,3.50
2022-12-03T23:26:28.385Z,3.65
2022-12-03T23:28:55.327Z,3.53
2022-12-03T23:31:27.213Z,3.78
2022-12-03T23:33:54.492Z,3.65
2022-12-03T23:36:21.665Z,3.45
2022-12-03T23:38:48.365Z,3.58
2022-12-03T23:41:17.431Z,3.60
2022-12-03T23:43:43.962Z,3.47
2022-12-03T23:46:11.707Z,3.55
2022-12-03T23:48:38.587Z,3.60
2022-12-03T23:51:13.181Z,3.75
2022-12-03T23:53:40.111Z,3.75
2022-12-03T23:56:12.204Z,3.50
2022-12-03T23:58:38.765Z,3.47
